createdAt,value
2024-02-02T00:02:07.380Z,100424.97
2024-02-02T00:04:34.191Z,100422.75
2024-02-02T00:07:00.839Z,100422.59
2024-02-02T00:09:27.532Z,100410.56
2024-02-02T00:11:54.140Z,100424.75
2024-02-02T00:14:20.780Z,100430.09
2024-02-02T00:16:47.369Z,100434.13
2024-02-02T00:19:14.097Z,100434.59
2024-02-02T00:21:40.672Z,100429.16
2024-02-02T00:24:07.385Z,100429.63
2024-02-02T00:26:33.916Z,100428.47
2024-02-02T00:29:00.446Z,100429.53
2024-02-02T00:31:26.985Z,100431.94
2024-02-02T00:33:53.623Z,100439.38
2024-02-02T00:36:20.210Z,100426.41
2024-02-02T00:38:46.874Z,100434.44
2024-02-02T00:41:13.458Z,100428.50
2024-02-02T00:43:40.112Z,100430.97
2024-02-02T00:46:06.676Z,100419.63
2024-02-02T00:48:35.438Z,100436.69
2024-02-02T00:51:02.521Z,100443.25
2024-02-02T00:53:29.158Z,100442.22
2024-02-02T00:55:56.075Z,100443.06
2024-02-02T00:58:22.625Z,100447.47
2024-02-02T01:00:49.132Z,100448.41
2024-02-02T01:03:15.713Z,100460.25
2024-02-02T01:05:42.260Z,100461.75
2024-02-02T01:08:08.878Z,100458.44
2024-02-02T01:10:35.453Z,100466.75
2024-02-02T01:13:01.959Z,100452.41
2024-02-02T01:15:28.580Z,100458.63
2024-02-02T01:17:55.234Z,100465.03
2024-02-02T01:20:21.792Z,100475.63
2024-02-02T01:22:49.264Z,100476.59
2024-02-02T01:25:16.050Z,100479.03
2024-02-02T01:27:42.879Z,100472.94
2024-02-02T01:30:12.882Z,100473.72
2024-02-02T01:32:40.246Z,100470.38
2024-02-02T01:35:06.985Z,100473.44
2024-02-02T01:37:33.562Z,100476.31
2024-02-02T01:40:00.083Z,100483.72
2024-02-02T01:42:26.815Z,100478.09
2024-02-02T01:44:53.516Z,100476.88
2024-02-02T01:47:20.198Z,100486.25
2024-02-02T01:49:46.947Z,100480.72
2024-02-02T01:52:13.819Z,100487.28
2024-02-02T01:54:40.605Z,100489.00
2024-02-02T01:57:07.269Z,100484.81
2024-02-02T01:59:34.331Z,100493.66
2024-02-02T02:02:01.097Z,100501.41
2024-02-02T02:04:27.933Z,100509.03
2024-02-02T02:06:54.783Z,100510.66
2024-02-02T02:09:21.677Z,100511.59
2024-02-02T02:11:48.312Z,100508.06
2024-02-02T02:14:14.975Z,100509.31
2024-02-02T02:16:43.584Z,100510.06
2024-02-02T02:19:14.049Z,100504.63
2024-02-02T02:21:40.690Z,100509.50
2024-02-02T02:24:09.867Z,100504.72
2024-02-02T02:26:37.199Z,100517.81
2024-02-02T02:29:04.070Z,100513.91
2024-02-02T02:31:31.056Z,100511.91
2024-02-02T02:33:57.913Z,100510.84
2024-02-02T02:36:25.106Z,100507.22
2024-02-02T02:38:52.122Z,100508.06
2024-02-02T02:41:18.882Z,100506.59
2024-02-02T02:43:45.410Z,100504.41
2024-02-02T02:46:12.771Z,100508.22
2024-02-02T02:48:39.602Z,100509.28
2024-02-02T02:51:06.388Z,100509.66
2024-02-02T02:53:33.008Z,100507.66
2024-02-02T02:55:59.632Z,100506.81
2024-02-02T02:58:26.203Z,100504.56
2024-02-02T03:00:53.813Z,100518.59
2024-02-02T03:03:20.393Z,100512.31
2024-02-02T03:05:48.221Z,100515.09
2024-02-02T03:08:15.088Z,100520.50
2024-02-02T03:10:43.070Z,100508.97
2024-02-02T03:13:09.824Z,100516.31
2024-02-02T03:15:36.385Z,100518.97
2024-02-02T03:18:03.194Z,100525.66
2024-02-02T03:20:30.131Z,100521.09
2024-02-02T03:22:56.943Z,100530.22
2024-02-02T03:25:23.754Z,100534.34
2024-02-02T03:27:50.265Z,100534.72
2024-02-02T03:30:17.101Z,100536.25
2024-02-02T03:32:45.513Z,100542.63
2024-02-02T03:35:12.587Z,100529.75
2024-02-02T03:37:39.247Z,100541.00
2024-02-02T03:40:06.076Z,100547.50
2024-02-02T03:42:32.621Z,100545.00
2024-02-02T03:44:59.293Z,100553.09
2024-02-02T03:47:26.160Z,100555.16
2024-02-02T03:49:52.696Z,100558.72
2024-02-02T03:52:24.310Z,100570.16
2024-02-02T03:54:51.952Z,100565.84
2024-02-02T03:57:19.218Z,100565.50
2024-02-02T03:59:45.981Z,100576.25
2024-02-02T04:02:13.052Z,100567.56
2024-02-02T04:04:39.725Z,100573.59
2024-02-02T04:07:06.248Z,100569.03
2024-02-02T04:09:33.599Z,100572.75
2024-02-02T04:12:00.345Z,100571.19
2024-02-02T04:14:27.108Z,100575.31
2024-02-02T04:16:53.656Z,100573.41
2024-02-02T04:19:22.268Z,100572.88
2024-02-02T04:21:49.261Z,100574.00
2024-02-02T04:24:15.887Z,100575.88
2024-02-02T04:26:42.937Z,100580.81
2024-02-02T04:29:09.640Z,100577.44
2024-02-02T04:31:36.553Z,100580.03
2024-02-02T04:34:03.231Z,100572.88
2024-02-02T04:36:31.690Z,100583.22
2024-02-02T04:38:58.439Z,100582.31
2024-02-02T04:41:25.813Z,100588.44
2024-02-02T04:43:52.367Z,100587.13
2024-02-02T04:46:18.907Z,100593.75
2024-02-02T04:48:45.602Z,100598.41
2024-02-02T04:51:12.378Z,100597.19
2024-02-02T04:53:38.968Z,100602.38
2024-02-02T04:56:05.814Z,100595.66
2024-02-02T04:58:32.339Z,100594.09
2024-02-02T05:00:58.879Z,100610.28
2024-02-02T05:03:25.505Z,100606.25
2024-02-02T05:05:52.065Z,100616.50
2024-02-02T05:08:18.732Z,100612.41
2024-02-02T05:10:45.372Z,100612.84
2024-02-02T05:13:12.260Z,100606.75
2024-02-02T05:15:39.060Z,100607.09
2024-02-02T05:18:06.113Z,100602.94
2024-02-02T05:20:32.704Z,100612.16
2024-02-02T05:22:59.356Z,100611.59
2024-02-02T05:25:26.935Z,100607.19
2024-02-02T05:27:53.723Z,100602.31
2024-02-02T05:30:21.401Z,100607.56
2024-02-02T05:32:47.949Z,100600.84
2024-02-02T05:35:14.609Z,100608.03
2024-02-02T05:37:41.176Z,100609.75
2024-02-02T05:40:08.945Z,100608.28
2024-02-02T05:42:35.597Z,100604.88
2024-02-02T05:45:02.609Z,100611.84
2024-02-02T05:47:29.371Z,100616.66
2024-02-02T05:49:56.133Z,100620.22
2024-02-02T05:52:22.698Z,100615.28
2024-02-02T05:54:49.298Z,100626.06
2024-02-02T05:57:15.940Z,100615.53
2024-02-02T05:59:42.502Z,100630.88
2024-02-02T06:02:09.109Z,100630.47
2024-02-02T06:04:35.772Z,100641.19
2024-02-02T06:07:02.444Z,100638.19
2024-02-02T06:09:30.269Z,100650.16
2024-02-02T06:11:58.376Z,100654.09
2024-02-02T06:14:26.987Z,100659.38
2024-02-02T06:16:53.650Z,100665.75
2024-02-02T06:19:20.307Z,100671.16
2024-02-02T06:21:47.012Z,100670.81
2024-02-02T06:24:13.794Z,100668.09
2024-02-02T06:26:40.568Z,100663.84
2024-02-02T06:29:07.200Z,100664.03
2024-02-02T06:31:34.449Z,100659.81
2024-02-02T06:34:01.630Z,100663.69
2024-02-02T06:36:29.501Z,100654.56
2024-02-02T06:38:57.385Z,100657.72
2024-02-02T06:41:24.320Z,100668.94
2024-02-02T06:43:51.338Z,100658.34
2024-02-02T06:46:18.012Z,100649.56
2024-02-02T06:48:46.022Z,100658.41
2024-02-02T06:51:13.555Z,100659.72
2024-02-02T06:53:40.310Z,100660.59
2024-02-02T06:56:29.647Z,100678.56
2024-02-02T06:58:56.164Z,100671.34
2024-02-02T07:01:22.859Z,100668.78
2024-02-02T07:03:49.816Z,100673.66
2024-02-02T07:06:16.656Z,100671.06
2024-02-02T07:08:43.345Z,100671.25
2024-02-02T07:11:34.376Z,100674.66
2024-02-02T07:14:01.197Z,100677.19
2024-02-02T07:16:30.576Z,100681.81
2024-02-02T07:18:57.804Z,100676.38
2024-02-02T07:21:38.536Z,100685.09
2024-02-02T07:24:05.476Z,100685.63
2024-02-02T07:26:32.387Z,100681.44
2024-02-02T07:28:59.659Z,100685.47
2024-02-02T07:31:39.935Z,100678.56
2024-02-02T07:34:38.444Z,100690.47
2024-02-02T07:37:09.974Z,100693.22
2024-02-02T07:39:37.596Z,100686.66
2024-02-02T07:42:04.669Z,100685.72
2024-02-02T07:44:31.382Z,100692.69
2024-02-02T07:46:58.147Z,100692.19
2024-02-02T07:49:24.823Z,100689.09
2024-02-02T07:51:51.641Z,100702.19
2024-02-02T07:54:18.309Z,100688.56
2024-02-02T07:56:45.037Z,100688.47
2024-02-02T07:59:12.573Z,100697.34
2024-02-02T08:01:39.299Z,100698.81
2024-02-02T08:04:06.221Z,100690.06
2024-02-02T08:06:33.170Z,100701.00
2024-02-02T08:08:59.985Z,100700.81
2024-02-02T08:11:29.796Z,100697.34
2024-02-02T08:13:56.505Z,100696.38
2024-02-02T08:16:23.071Z,100697.31
2024-02-02T08:18:50.713Z,100697.31
2024-02-02T08:21:17.445Z,100693.97
2024-02-02T08:23:44.128Z,100695.78
2024-02-02T08:26:11.139Z,100693.44
2024-02-02T08:28:48.380Z,100689.63
2024-02-02T08:31:18.790Z,100692.97
2024-02-02T08:33:45.688Z,100687.41
2024-02-02T08:36:12.705Z,100682.06
2024-02-02T08:38:40.360Z,100689.78
2024-02-02T08:41:07.188Z,100687.97
2024-02-02T08:43:36.377Z,100691.16
2024-02-02T08:46:14.699Z,100697.72
2024-02-02T08:48:48.186Z,100694.16
2024-02-02T08:51:25.176Z,100684.97
2024-02-02T08:54:13.722Z,100688.91
2024-02-02T08:56:40.455Z,100687.06
2024-02-02T08:59:34.278Z,100690.66
2024-02-02T09:02:06.168Z,100688.06
2024-02-02T09:04:36.198Z,100684.91
2024-02-02T09:07:05.334Z,100698.69
2024-02-02T09:09:32.663Z,100699.34
2024-02-02T09:11:59.337Z,100705.38
2024-02-02T09:14:27.914Z,100701.63
2024-02-02T09:16:55.443Z,100704.78
2024-02-02T09:19:34.736Z,100694.91
2024-02-02T09:22:05.301Z,100691.38
2024-02-02T09:24:50.892Z,100707.09
2024-02-02T09:27:38.007Z,100718.28
2024-02-02T09:30:19.124Z,100715.31
2024-02-02T09:32:46.201Z,100704.06
2024-02-02T09:35:33.907Z,100703.72
2024-02-02T09:38:00.611Z,100707.16
2024-02-02T09:40:27.185Z,100706.63
2024-02-02T09:43:03.552Z,100704.91
2024-02-02T09:45:46.598Z,100719.53
2024-02-02T09:48:42.131Z,100720.50
2024-02-02T09:51:21.947Z,100711.47
2024-02-02T09:54:01.587Z,100715.25
2024-02-02T09:56:40.754Z,100712.13
2024-02-02T09:59:23.520Z,100699.97
2024-02-02T10:02:28.598Z,100692.00
2024-02-02T10:05:11.758Z,100707.69
2024-02-02T10:08:20.897Z,100692.03
2024-02-02T10:10:56.181Z,100704.66
2024-02-02T10:13:28.285Z,100705.22
2024-02-02T10:16:16.754Z,100697.53
2024-02-02T10:19:12.059Z,100697.78
2024-02-02T10:22:12.722Z,100691.25
2024-02-02T10:25:22.254Z,100697.69
2024-02-02T10:28:05.150Z,100697.78
2024-02-02T10:31:04.658Z,100697.50
2024-02-02T10:33:37.381Z,100696.03
2024-02-02T10:36:34.639Z,100692.97
2024-02-02T10:39:07.963Z,100689.72
2024-02-02T10:42:01.405Z,100690.97
2024-02-02T10:44:38.425Z,100679.72
2024-02-02T10:47:14.210Z,100679.22
2024-02-02T10:50:07.769Z,100671.53
2024-02-02T10:53:07.847Z,100682.63
2024-02-02T10:56:00.205Z,100673.38
2024-02-02T10:58:53.152Z,100672.66
2024-02-02T11:01:38.298Z,100680.09
2024-02-02T11:04:07.981Z,100672.84
2024-02-02T11:06:50.352Z,100670.69
2024-02-02T11:09:34.773Z,100673.25
2024-02-02T11:12:16.814Z,100674.22
2024-02-02T11:14:54.469Z,100668.34
2024-02-02T11:17:27.537Z,100668.91
2024-02-02T11:20:18.329Z,100682.47
2024-02-02T11:23:03.768Z,100665.28
2024-02-02T11:25:51.968Z,100663.84
2024-02-02T11:28:41.651Z,100661.97
2024-02-02T11:31:26.306Z,100663.63
2024-02-02T11:34:20.351Z,100655.50
2024-02-02T11:37:05.479Z,100664.13
2024-02-02T11:39:58.015Z,100651.63
2024-02-02T11:42:26.787Z,100651.59
2024-02-02T11:44:56.957Z,100647.22
2024-02-02T11:47:24.284Z,100656.53
2024-02-02T11:50:00.147Z,100652.31
2024-02-02T11:52:37.842Z,100647.06
2024-02-02T11:55:13.652Z,100649.97
2024-02-02T11:57:48.416Z,100636.53
2024-02-02T12:00:27.637Z,100644.16
2024-02-02T12:03:29.428Z,100642.72
2024-02-02T12:06:17.992Z,100629.06
2024-02-02T12:09:13.168Z,100626.47
2024-02-02T12:11:44.502Z,100637.13
2024-02-02T12:14:30.324Z,100623.66
2024-02-02T12:16:57.604Z,100626.81
2024-02-02T12:19:24.384Z,100625.94
2024-02-02T12:21:51.138Z,100621.22
2024-02-02T12:24:18.353Z,100614.97
2024-02-02T12:26:48.431Z,100617.00
2024-02-02T12:29:16.668Z,100614.75
2024-02-02T12:31:43.497Z,100604.91
2024-02-02T12:34:11.476Z,100604.38
2024-02-02T12:36:38.430Z,100599.16
2024-02-02T12:39:06.627Z,100592.56
2024-02-02T12:41:36.886Z,100594.06
2024-02-02T12:44:03.778Z,100590.78
2024-02-02T12:46:30.446Z,100586.50
2024-02-02T12:48:57.458Z,100581.91
2024-02-02T12:51:24.394Z,100586.38
2024-02-02T12:53:51.338Z,100594.13
2024-02-02T12:56:19.068Z,100596.56
2024-02-02T12:58:45.976Z,100586.69
2024-02-02T13:01:12.837Z,100592.69
2024-02-02T13:03:44.302Z,100592.28
2024-02-02T13:06:13.405Z,100587.56
2024-02-02T13:08:42.140Z,100581.75
2024-02-02T13:11:20.136Z,100570.03
2024-02-02T13:13:46.913Z,100570.31
2024-02-02T13:16:29.813Z,100569.91
2024-02-02T13:18:56.523Z,100568.97
2024-02-02T13:21:25.893Z,100561.44
2024-02-02T13:23:57.445Z,100562.50
2024-02-02T13:26:39.985Z,100559.44
2024-02-02T13:29:11.592Z,100562.88
2024-02-02T13:31:42.005Z,100557.66
2024-02-02T13:34:15.862Z,100549.50
2024-02-02T13:36:45.596Z,100545.13
2024-02-02T13:39:19.952Z,100550.78
2024-02-02T13:41:47.597Z,100541.03
2024-02-02T13:44:18.077Z,100545.56
2024-02-02T13:46:48.350Z,100539.22
2024-02-02T13:49:25.257Z,100543.84
2024-02-02T13:51:53.255Z,100546.50
2024-02-02T13:54:21.076Z,100542.75
2024-02-02T13:56:48.108Z,100541.69
2024-02-02T13:59:20.928Z,100539.78
2024-02-02T14:01:47.542Z,100533.44
2024-02-02T14:04:23.279Z,100517.16
2024-02-02T14:06:50.309Z,100517.47
2024-02-02T14:09:23.785Z,100519.97
2024-02-02T14:11:51.150Z,100513.06
2024-02-02T14:14:25.105Z,100513.19
2024-02-02T14:16:51.728Z,100501.94
2024-02-02T14:19:19.566Z,100511.47
2024-02-02T14:21:46.200Z,100506.41
2024-02-02T14:24:15.999Z,100501.28
2024-02-02T14:26:50.917Z,100494.41
2024-02-02T14:29:18.455Z,100480.84
2024-02-02T14:31:46.006Z,100479.22
2024-02-02T14:34:12.700Z,100487.78
2024-02-02T14:36:39.913Z,100465.06
2024-02-02T14:39:13.582Z,100462.38
2024-02-02T14:41:40.733Z,100449.63
2024-02-02T14:44:07.270Z,100454.66
2024-02-02T14:46:34.645Z,100453.38
2024-02-02T14:49:01.865Z,100457.66
2024-02-02T14:51:29.378Z,100450.06
2024-02-02T14:53:55.992Z,100451.66
2024-02-02T14:56:22.693Z,100447.81
2024-02-02T14:58:49.579Z,100442.56
2024-02-02T15:01:16.251Z,100432.47
2024-02-02T15:03:44.434Z,100434.06
2024-02-02T15:06:12.689Z,100438.47
2024-02-02T15:08:39.689Z,100416.97
2024-02-02T15:11:07.972Z,100427.22
2024-02-02T15:13:34.727Z,100421.03
2024-02-02T15:16:02.163Z,100413.06
2024-02-02T15:18:29.077Z,100413.00
2024-02-02T15:20:56.481Z,100419.31
2024-02-02T15:23:23.578Z,100421.09
2024-02-02T15:25:50.321Z,100404.97
2024-02-02T15:28:16.801Z,100413.00
2024-02-02T15:30:44.177Z,100414.28
2024-02-02T15:33:11.272Z,100407.72
2024-02-02T15:35:37.812Z,100409.25
2024-02-02T15:38:04.655Z,100408.16
2024-02-02T15:40:31.228Z,100402.06
2024-02-02T15:42:57.842Z,100398.53
2024-02-02T15:45:24.602Z,100390.28
2024-02-02T15:47:52.166Z,100398.88
2024-02-02T15:50:18.971Z,100395.31
2024-02-02T15:52:45.509Z,100389.97
2024-02-02T15:55:13.200Z,100394.34
2024-02-02T15:57:39.796Z,100386.22
2024-02-02T16:00:11.246Z,100388.03
2024-02-02T16:02:37.830Z,100386.44
2024-02-02T16:05:05.996Z,100385.78
2024-02-02T16:07:32.596Z,100381.28
2024-02-02T16:09:59.168Z,100374.22
2024-02-02T16:12:26.048Z,100359.84
2024-02-02T16:14:52.640Z,100354.38
2024-02-02T16:17:19.169Z,100346.06
2024-02-02T16:19:45.915Z,100346.25
2024-02-02T16:22:12.601Z,100328.91
2024-02-02T16:24:39.991Z,100333.41
2024-02-02T16:27:07.246Z,100317.66
2024-02-02T16:29:36.771Z,100312.31
2024-02-02T16:32:03.483Z,100319.78
2024-02-02T16:34:30.418Z,100311.97
2024-02-02T16:36:57.361Z,100303.38
2024-02-02T16:39:24.559Z,100304.25
2024-02-02T16:41:51.988Z,100309.72
2024-02-02T16:44:18.576Z,100311.00
2024-02-02T16:46:45.333Z,100294.72
2024-02-02T16:49:12.689Z,100308.94
2024-02-02T16:51:39.517Z,100290.09
2024-02-02T16:54:09.976Z,100271.78
2024-02-02T16:56:38.173Z,100274.16
2024-02-02T16:59:05.158Z,100261.31
2024-02-02T17:01:35.820Z,100255.09
2024-02-02T17:04:03.091Z,100251.00
2024-02-02T17:06:30.796Z,100238.81
2024-02-02T17:08:57.997Z,100229.59
2024-02-02T17:11:24.587Z,100233.03
2024-02-02T17:13:51.154Z,100225.03
2024-02-02T17:16:20.824Z,100230.69
2024-02-02T17:18:47.697Z,100231.31
2024-02-02T17:21:14.855Z,100223.41
2024-02-02T17:23:41.559Z,100211.78
2024-02-02T17:26:18.874Z,100209.31
2024-02-02T17:28:46.127Z,100197.31
2024-02-02T17:31:13.742Z,100200.84
2024-02-02T17:33:41.487Z,100202.03
2024-02-02T17:36:17.233Z,100206.22
2024-02-02T17:38:44.533Z,100197.09
2024-02-02T17:41:16.061Z,100192.59
2024-02-02T17:43:44.089Z,100184.25
2024-02-02T17:46:20.338Z,100176.78
2024-02-02T17:48:48.492Z,100171.31
2024-02-02T17:51:19.067Z,100164.03
2024-02-02T17:53:45.967Z,100163.44
2024-02-02T17:56:13.418Z,100150.72
2024-02-02T17:58:40.414Z,100146.31
2024-02-02T18:01:06.981Z,100138.34
2024-02-02T18:03:34.623Z,100132.34
2024-02-02T18:06:02.182Z,100125.81
2024-02-02T18:08:29.715Z,100129.56
2024-02-02T18:10:56.496Z,100124.25
2024-02-02T18:13:23.218Z,100116.44
2024-02-02T18:15:50.623Z,100118.25
2024-02-02T18:18:18.347Z,100111.09
2024-02-02T18:20:45.443Z,100108.84
2024-02-02T18:23:12.674Z,100105.28
2024-02-02T18:25:39.693Z,100083.78
2024-02-02T18:28:08.732Z,100095.75
2024-02-02T18:30:35.295Z,100089.69
2024-02-02T18:33:02.054Z,100076.94
2024-02-02T18:35:28.697Z,100076.94
2024-02-02T18:37:55.838Z,100078.78
2024-02-02T18:40:26.362Z,100074.38
2024-02-02T18:42:53.749Z,100080.06
2024-02-02T18:45:23.217Z,100077.47
2024-02-02T18:47:50.319Z,100063.13
2024-02-02T18:50:17.515Z,100060.16
2024-02-02T18:52:44.155Z,100056.84
2024-02-02T18:55:11.114Z,100047.41
2024-02-02T18:57:37.620Z,100034.28
2024-02-02T19:00:05.848Z,100032.88
2024-02-02T19:02:32.696Z,100023.59
2024-02-02T19:04:59.493Z,100027.09
2024-02-02T19:07:28.059Z,100016.31
2024-02-02T19:09:54.876Z,100015.56
2024-02-02T19:12:21.479Z,100005.19
2024-02-02T19:14:48.204Z,100003.47
2024-02-02T19:17:15.713Z,100002.59
2024-02-02T19:19:42.322Z,99994.63
2024-02-02T19:22:09.162Z,99988.06
2024-02-02T19:24:38.466Z,99984.31
2024-02-02T19:27:05.188Z,99988.38
2024-02-02T19:29:31.734Z,99986.91
2024-02-02T19:31:58.345Z,99983.59
2024-02-02T19:34:24.916Z,99974.59
2024-02-02T19:36:51.694Z,99975.13
2024-02-02T19:39:18.955Z,99972.34
2024-02-02T19:41:45.505Z,99954.56
2024-02-02T19:44:12.245Z,99952.72
2024-02-02T19:46:38.985Z,99953.97
2024-02-02T19:49:08.043Z,99933.25
2024-02-02T19:51:38.806Z,99927.59
2024-02-02T19:54:05.656Z,99926.25
2024-02-02T19:56:32.195Z,99920.59
2024-02-02T19:58:58.743Z,99913.78
2024-02-02T20:01:27.204Z,99915.75
2024-02-02T20:03:54.267Z,99898.88
2024-02-02T20:06:21.359Z,99897.16
2024-02-02T20:08:49.146Z,99894.09
2024-02-02T20:49:11.078Z,99831.25
2024-02-02T20:51:42.280Z,99814.78
2024-02-02T20:54:08.985Z,99802.69
2024-02-02T20:56:45.049Z,99795.69
2024-02-02T20:59:12.455Z,99799.31
2024-02-02T21:01:38.972Z,99786.41
2024-02-02T21:04:05.535Z,99791.63
2024-02-02T21:06:32.249Z,99781.69
2024-02-02T21:08:59.878Z,99782.19
2024-02-02T21:11:26.552Z,99781.91
2024-02-02T21:13:53.067Z,99774.84
2024-02-02T21:16:19.905Z,99753.72
2024-02-02T21:18:47.075Z,99739.66
2024-02-02T21:21:22.008Z,99743.66
2024-02-02T21:23:50.134Z,99731.88
2024-02-02T21:26:17.638Z,99725.66
2024-02-02T21:28:44.367Z,99721.91
2024-02-02T21:31:12.861Z,99723.72
2024-02-02T21:33:39.476Z,99713.50
2024-02-02T21:36:09.136Z,99714.97
2024-02-02T21:38:35.929Z,99721.19
2024-02-02T21:41:03.096Z,99706.31
2024-02-02T21:43:29.661Z,99707.06
2024-02-02T21:45:56.392Z,99699.91
2024-02-02T21:48:23.605Z,99714.00
2024-02-02T21:50:50.229Z,99722.16
2024-02-02T21:53:17.557Z,99705.16
2024-02-02T21:55:46.231Z,99698.84
2024-02-02T21:58:13.067Z,99701.50
2024-02-02T22:00:39.658Z,99693.38
2024-02-02T22:03:06.299Z,99693.88
2024-02-02T22:05:33.434Z,99692.06
2024-02-02T22:08:01.269Z,99684.66
2024-02-02T22:10:27.768Z,99675.91
2024-02-02T22:12:54.349Z,99673.22
2024-02-02T22:15:20.924Z,99668.72
2024-02-02T22:17:48.260Z,99666.91
2024-02-02T22:20:14.861Z,99664.13
2024-02-02T22:22:41.569Z,99645.28
2024-02-02T22:25:09.659Z,99651.38
2024-02-02T22:27:37.871Z,99645.91
2024-02-02T22:30:07.188Z,99628.06
2024-02-02T22:32:34.195Z,99631.22
2024-02-02T22:35:02.367Z,99629.50
2024-02-02T22:37:29.130Z,99626.97
2024-02-02T22:39:55.731Z,99622.72
2024-02-02T22:42:22.493Z,99624.69
2024-02-02T22:44:49.273Z,99619.44
2024-02-02T22:47:15.764Z,99629.78
2024-02-02T22:49:42.311Z,99631.25
2024-02-02T22:52:09.007Z,99629.53
2024-02-02T22:54:35.586Z,99640.84
2024-02-02T22:57:02.258Z,99629.19
2024-02-02T22:59:29.011Z,99633.31
2024-02-02T23:01:56.060Z,99623.09
2024-02-02T23:04:22.691Z,99614.09
2024-02-02T23:06:49.396Z,99608.53
2024-02-02T23:09:16.118Z,99599.53
2024-02-02T23:11:43.023Z,99604.75
2024-02-02T23:14:11.141Z,99583.84
2024-02-02T23:16:37.681Z,99585.81
2024-02-02T23:19:04.508Z,99569.75
2024-02-02T23:21:31.282Z,99560.63
2024-02-02T23:23:57.952Z,99550.53
2024-02-02T23:26:24.484Z,99553.91
2024-02-02T23:28:51.175Z,99536.91
2024-02-02T23:31:18.131Z,99536.53
2024-02-02T23:33:44.721Z,99545.06
2024-02-02T23:36:12.377Z,99540.06
2024-02-02T23:38:40.477Z,99524.03
2024-02-02T23:41:06.964Z,99523.06
2024-02-02T23:43:34.235Z,99514.53
2024-02-02T23:46:00.721Z,99508.06
2024-02-02T23:48:27.576Z,99497.00
2024-02-02T23:50:54.162Z,99480.94
2024-02-02T23:53:20.688Z,99475.91
2024-02-02T23:55:47.178Z,99471.41
2024-02-02T23:58:13.783Z,99464.22
